sensor_id;sensor_type;location;lat;lon;timestamp;P1;durP1;ratioP1;P2;durP2;ratioP2
47856;SDS011;33618;49.972;8.242;2023-02-03T00:04:39;3.25;;;1.60;;
47856;SDS011;33618;49.972;8.242;2023-02-03T00:07:09;3.92;;;2.13;;
47856;SDS011;33618;49.972;8.242;2023-02-03T00:09:38;3.28;;;2.05;;
47856;SDS011;33618;49.972;8.242;2023-02-03T00:12:05;3.15;;;2.08;;
47856;SDS011;33618;49.972;8.242;2023-02-03T00:14:33;3.72;;;2.67;;
47856;SDS011;33618;49.972;8.242;2023-02-03T00:17:00;2.38;;;1.67;;
47856;SDS011;33618;49.972;8.242;2023-02-03T00:19:26;4.05;;;1.90;;
47856;SDS011;33618;49.972;8.242;2023-02-03T00:21:54;2.20;;;2.00;;
47856;SDS011;33618;49.972;8.242;2023-02-03T00:24:21;7.03;;;2.40;;
47856;SDS011;33618;49.972;8.242;2023-02-03T00:26:49;3.95;;;2.47;;
47856;SDS011;33618;49.972;8.242;2023-02-03T00:29:15;4.53;;;2.30;;
47856;SDS011;33618;49.972;8.242;2023-02-03T00:31:43;3.13;;;1.85;;
47856;SDS011;33618;49.972;8.242;2023-02-03T00:34:10;2.03;;;1.83;;
47856;SDS011;33618;49.972;8.242;2023-02-03T00:36:37;9.50;;;2.75;;
47856;SDS011;33618;49.972;8.242;2023-02-03T00:39:07;5.30;;;2.55;;
47856;SDS011;33618;49.972;8.242;2023-02-03T00:41:34;3.45;;;2.10;;
47856;SDS011;33618;49.972;8.242;2023-02-03T00:44:01;2.22;;;1.80;;
47856;SDS011;33618;49.972;8.242;2023-02-03T00:46:28;3.92;;;2.13;;
47856;SDS011;33618;49.972;8.242;2023-02-03T00:48:55;4.15;;;1.90;;
47856;SDS011;33618;49.972;8.242;2023-02-03T00:51:22;4.10;;;2.10;;
47856;SDS011;33618;49.972;8.242;2023-02-03T00:53:49;3.92;;;2.00;;
47856;SDS011;33618;49.972;8.242;2023-02-03T00:56:16;3.22;;;1.83;;
47856;SDS011;33618;49.972;8.242;2023-02-03T00:58:43;2.33;;;1.73;;
47856;SDS011;33618;49.972;8.242;2023-02-03T01:01:09;4.43;;;2.10;;
47856;SDS011;33618;49.972;8.242;2023-02-03T01:03:37;5.00;;;2.10;;
47856;SDS011;33618;49.972;8.242;2023-02-03T01:06:08;3.20;;;1.80;;
47856;SDS011;33618;49.972;8.242;2023-02-03T01:08:41;2.42;;;2.08;;
47856;SDS011;33618;49.972;8.242;2023-02-03T01:11:09;3.90;;;1.98;;
47856;SDS011;33618;49.972;8.242;2023-02-03T01:13:37;2.20;;;1.80;;
47856;SDS011;33618;49.972;8.242;2023-02-03T01:16:08;3.28;;;1.92;;
47856;SDS011;33618;49.972;8.242;2023-02-03T01:18:36;2.10;;;1.63;;
47856;SDS011;33618;49.972;8.242;2023-02-03T01:21:08;2.83;;;1.77;;
47856;SDS011;33618;49.972;8.242;2023-02-03T01:26:08;1.67;;;1.58;;
47856;SDS011;33618;49.972;8.242;2023-02-03T01:28:37;3.72;;;1.80;;
47856;SDS011;33618;49.972;8.242;2023-02-03T01:33:36;1.50;;;1.40;;
47856;SDS011;33618;49.972;8.242;2023-02-03T01:36:07;1.85;;;1.58;;
47856;SDS011;33618;49.972;8.242;2023-02-03T01:38:37;2.20;;;1.50;;
47856;SDS011;33618;49.972;8.242;2023-02-03T01:41:06;1.83;;;1.50;;
47856;SDS011;33618;49.972;8.242;2023-02-03T01:43:39;3.15;;;1.70;;
47856;SDS011;33618;49.972;8.242;2023-02-03T01:49:08;1.73;;;1.33;;
47856;SDS011;33618;49.972;8.242;2023-02-03T01:51:47;1.52;;;1.38;;
47856;SDS011;33618;49.972;8.242;2023-02-03T01:54:16;1.40;;;1.35;;
47856;SDS011;33618;49.972;8.242;2023-02-03T01:56:50;2.65;;;1.20;;
47856;SDS011;33618;49.972;8.242;2023-02-03T01:59:24;1.40;;;1.30;;
47856;SDS011;33618;49.972;8.242;2023-02-03T02:01:52;1.30;;;1.20;;
47856;SDS011;33618;49.972;8.242;2023-02-03T02:04:21;1.48;;;1.00;;
47856;SDS011;33618;49.972;8.242;2023-02-03T02:06:54;1.73;;;1.30;;
47856;SDS011;33618;49.972;8.242;2023-02-03T02:09:23;1.50;;;1.20;;
47856;SDS011;33618;49.972;8.242;2023-02-03T02:11:51;3.78;;;1.38;;
47856;SDS011;33618;49.972;8.242;2023-02-03T02:14:18;1.65;;;1.55;;
47856;SDS011;33618;49.972;8.242;2023-02-03T02:16:52;3.40;;;1.52;;
47856;SDS011;33618;49.972;8.242;2023-02-03T02:22:24;1.30;;;1.20;;
47856;SDS011;33618;49.972;8.242;2023-02-03T02:49:12;1.00;;;1.00;;
47856;SDS011;33618;49.972;8.242;2023-02-03T02:51:49;1.73;;;1.40;;
47856;SDS011;33618;49.972;8.242;2023-02-03T02:54:20;1.60;;;1.10;;
47856;SDS011;33618;49.972;8.242;2023-02-03T02:56:50;2.22;;;1.48;;
47856;SDS011;33618;49.972;8.242;2023-02-03T02:59:21;1.92;;;1.30;;
47856;SDS011;33618;49.972;8.242;2023-02-03T03:01:47;2.03;;;1.42;;
47856;SDS011;33618;49.972;8.242;2023-02-03T03:04:15;2.17;;;1.23;;
47856;SDS011;33618;49.972;8.242;2023-02-03T03:29:43;1.40;;;1.30;;
47856;SDS011;33618;49.972;8.242;2023-02-03T03:32:15;1.35;;;1.30;;
47856;SDS011;33618;49.972;8.242;2023-02-03T03:34:42;1.20;;;1.05;;
47856;SDS011;33618;49.972;8.242;2023-02-03T03:37:19;1.30;;;1.20;;
47856;SDS011;33618;49.972;8.242;2023-02-03T03:40:08;1.13;;;1.10;;
47856;SDS011;33618;49.972;8.242;2023-02-03T03:42:57;1.13;;;1.10;;
47856;SDS011;33618;49.972;8.242;2023-02-03T03:45:33;2.47;;;1.30;;
47856;SDS011;33618;49.972;8.242;2023-02-03T03:48:08;1.10;;;1.00;;
47856;SDS011;33618;49.972;8.242;2023-02-03T03:50:41;1.05;;;1.00;;
47856;SDS011;33618;49.972;8.242;2023-02-03T03:53:15;0.93;;;0.93;;
47856;SDS011;33618;49.972;8.242;2023-02-03T03:55:45;1.33;;;1.23;;
47856;SDS011;33618;49.972;8.242;2023-02-03T03:58:18;2.20;;;1.17;;
47856;SDS011;33618;49.972;8.242;2023-02-03T04:00:50;1.38;;;1.20;;
47856;SDS011;33618;49.972;8.242;2023-02-03T04:03:22;1.38;;;1.05;;
47856;SDS011;33618;49.972;8.242;2023-02-03T04:05:53;1.33;;;1.20;;
47856;SDS011;33618;49.972;8.242;2023-02-03T04:08:20;1.00;;;1.00;;
47856;SDS011;33618;49.972;8.242;2023-02-03T04:10:47;1.10;;;1.10;;
47856;SDS011;33618;49.972;8.242;2023-02-03T04:13:14;2.72;;;0.98;;
47856;SDS011;33618;49.972;8.242;2023-02-03T04:15:45;0.90;;;0.90;;
47856;SDS011;33618;49.972;8.242;2023-02-03T04:18:12;1.25;;;1.00;;
47856;SDS011;33618;49.972;8.242;2023-02-03T04:20:41;1.23;;;1.10;;
47856;SDS011;33618;49.972;8.242;2023-02-03T04:23:08;0.80;;;0.80;;
47856;SDS011;33618;49.972;8.242;2023-02-03T04:25:35;1.20;;;1.00;;
47856;SDS011;33618;49.972;8.242;2023-02-03T04:28:02;0.90;;;0.90;;
47856;SDS011;33618;49.972;8.242;2023-02-03T04:30:31;0.90;;;0.90;;
47856;SDS011;33618;49.972;8.242;2023-02-03T04:32:58;0.80;;;0.80;;
47856;SDS011;33618;49.972;8.242;2023-02-03T04:35:26;1.17;;;1.08;;
47856;SDS011;33618;49.972;8.242;2023-02-03T04:37:53;1.33;;;1.02;;
47856;SDS011;33618;49.972;8.242;2023-02-03T04:40:20;1.70;;;1.00;;
47856;SDS011;33618;49.972;8.242;2023-02-03T04:42:47;1.13;;;1.02;;
47856;SDS011;33618;49.972;8.242;2023-02-03T05:01:39;2.60;;;1.40;;
47856;SDS011;33618;49.972;8.242;2023-02-03T05:04:08;4.05;;;1.50;;
47856;SDS011;33618;49.972;8.242;2023-02-03T05:06:36;1.52;;;1.30;;
47856;SDS011;33618;49.972;8.242;2023-02-03T05:09:03;4.60;;;1.30;;
47856;SDS011;33618;49.972;8.242;2023-02-03T05:11:30;1.45;;;1.35;;
47856;SDS011;33618;49.972;8.242;2023-02-03T05:13:58;1.30;;;1.17;;
47856;SDS011;33618;49.972;8.242;2023-02-03T05:16:25;1.48;;;1.30;;
47856;SDS011;33618;49.972;8.242;2023-02-03T05:18:52;1.40;;;1.30;;
47856;SDS011;33618;49.972;8.242;2023-02-03T05:21:19;1.30;;;1.20;;
47856;SDS011;33618;49.972;8.242;2023-02-03T05:23:46;1.60;;;1.45;;
47856;SDS011;33618;49.972;8.242;2023-02-03T05:26:13;1.92;;;1.75;;
47856;SDS011;33618;49.972;8.242;2023-02-03T05:28:40;1.83;;;1.30;;
47856;SDS011;33618;49.972;8.242;2023-02-03T05:31:07;2.60;;;1.40;;
47856;SDS011;33618;49.972;8.242;2023-02-03T05:33:34;1.50;;;1.38;;
47856;SDS011;33618;49.972;8.242;2023-02-03T05:36:01;3.03;;;1.40;;
47856;SDS011;33618;49.972;8.242;2023-02-03T05:38:28;3.20;;;1.40;;
47856;SDS011;33618;49.972;8.242;2023-02-03T05:40:55;1.52;;;1.42;;
47856;SDS011;33618;49.972;8.242;2023-02-03T05:43:41;2.25;;;1.20;;
47856;SDS011;33618;49.972;8.242;2023-02-03T05:46:08;2.47;;;1.20;;
47856;SDS011;33618;49.972;8.242;2023-02-03T05:48:35;1.60;;;1.50;;
47856;SDS011;33618;49.972;8.242;2023-02-03T05:51:02;1.42;;;1.33;;
47856;SDS011;33618;49.972;8.242;2023-02-03T05:53:29;1.40;;;1.30;;
47856;SDS011;33618;49.972;8.242;2023-02-03T05:55:56;2.67;;;1.27;;
47856;SDS011;33618;49.972;8.242;2023-02-03T05:58:23;1.75;;;1.33;;
47856;SDS011;33618;49.972;8.242;2023-02-03T06:00:50;1.52;;;1.42;;
47856;SDS011;33618;49.972;8.242;2023-02-03T06:03:17;2.15;;;1.30;;
47856;SDS011;33618;49.972;8.242;2023-02-03T06:05:44;1.90;;;1.45;;
47856;SDS011;33618;49.972;8.242;2023-02-03T06:08:11;1.70;;;1.50;;
47856;SDS011;33618;49.972;8.242;2023-02-03T06:10:38;1.48;;;1.25;;
47856;SDS011;33618;49.972;8.242;2023-02-03T06:13:12;1.80;;;1.40;;
47856;SDS011;33618;49.972;8.242;2023-02-03T06:15:40;1.48;;;1.20;;
47856;SDS011;33618;49.972;8.242;2023-02-03T06:18:08;2.25;;;1.50;;
47856;SDS011;33618;49.972;8.242;2023-02-03T06:20:35;1.83;;;1.38;;
47856;SDS011;33618;49.972;8.242;2023-02-03T06:23:02;1.70;;;1.45;;
47856;SDS011;33618;49.972;8.242;2023-02-03T06:25:29;1.60;;;1.50;;
47856;SDS011;33618;49.972;8.242;2023-02-03T06:27:58;1.70;;;1.60;;
47856;SDS011;33618;49.972;8.242;2023-02-03T06:30:25;1.70;;;1.40;;
47856;SDS011;33618;49.972;8.242;2023-02-03T06:32:53;2.80;;;1.63;;
47856;SDS011;33618;49.972;8.242;2023-02-03T06:35:20;1.55;;;1.35;;
47856;SDS011;33618;49.972;8.242;2023-02-03T06:37:47;2.08;;;1.25;;
47856;SDS011;33618;49.972;8.242;2023-02-03T06:40:14;1.50;;;1.40;;
47856;SDS011;33618;49.972;8.242;2023-02-03T06:42:45;3.17;;;1.50;;
47856;SDS011;33618;49.972;8.242;2023-02-03T06:45:13;1.90;;;1.30;;
47856;SDS011;33618;49.972;8.242;2023-02-03T06:47:40;1.88;;;1.38;;
47856;SDS011;33618;49.972;8.242;2023-02-03T06:50:10;1.42;;;1.33;;
47856;SDS011;33618;49.972;8.242;2023-02-03T06:52:38;3.10;;;1.40;;
47856;SDS011;33618;49.972;8.242;2023-02-03T06:55:06;2.83;;;1.50;;
47856;SDS011;33618;49.972;8.242;2023-02-03T06:57:34;1.55;;;1.27;;
47856;SDS011;33618;49.972;8.242;2023-02-03T07:00:01;2.38;;;1.50;;
47856;SDS011;33618;49.972;8.242;2023-02-03T07:02:28;5.30;;;1.30;;
47856;SDS011;33618;49.972;8.242;2023-02-03T07:04:55;1.75;;;1.17;;
47856;SDS011;33618;49.972;8.242;2023-02-03T07:07:22;2.03;;;1.33;;
47856;SDS011;33618;49.972;8.242;2023-02-03T07:09:50;3.03;;;1.50;;
47856;SDS011;33618;49.972;8.242;2023-02-03T07:12:17;1.38;;;1.25;;
47856;SDS011;33618;49.972;8.242;2023-02-03T07:14:44;1.67;;;1.30;;
47856;SDS011;33618;49.972;8.242;2023-02-03T07:17:11;1.75;;;1.30;;
47856;SDS011;33618;49.972;8.242;2023-02-03T07:19:38;1.80;;;1.30;;
47856;SDS011;33618;49.972;8.242;2023-02-03T07:22:05;2.42;;;1.30;;
47856;SDS011;33618;49.972;8.242;2023-02-03T07:24:32;2.80;;;1.33;;
47856;SDS011;33618;49.972;8.242;2023-02-03T07:26:59;1.38;;;1.27;;
47856;SDS011;33618;49.972;8.242;2023-02-03T07:29:28;1.55;;;1.20;;
47856;SDS011;33618;49.972;8.242;2023-02-03T07:31:55;1.98;;;1.33;;
47856;SDS011;33618;49.972;8.242;2023-02-03T07:34:22;2.65;;;1.70;;
47856;SDS011;33618;49.972;8.242;2023-02-03T07:36:49;2.20;;;1.40;;
47856;SDS011;33618;49.972;8.242;2023-02-03T07:39:16;1.50;;;1.40;;
47856;SDS011;33618;49.972;8.242;2023-02-03T07:41:42;4.78;;;1.40;;
47856;SDS011;33618;49.972;8.242;2023-02-03T07:44:09;2.20;;;1.40;;
47856;SDS011;33618;49.972;8.242;2023-02-03T07:46:36;2.33;;;1.30;;
47856;SDS011;33618;49.972;8.242;2023-02-03T07:49:10;2.28;;;1.30;;
47856;SDS011;33618;49.972;8.242;2023-02-03T07:51:38;1.48;;;1.17;;
47856;SDS011;33618;49.972;8.242;2023-02-03T07:54:05;3.40;;;1.38;;
47856;SDS011;33618;49.972;8.242;2023-02-03T07:56:33;1.60;;;1.20;;
47856;SDS011;33618;49.972;8.242;2023-02-03T07:59:00;1.30;;;1.20;;
47856;SDS011;33618;49.972;8.242;2023-02-03T08:01:27;1.20;;;1.10;;
47856;SDS011;33618;49.972;8.242;2023-02-03T08:03:54;7.25;;;1.50;;
47856;SDS011;33618;49.972;8.242;2023-02-03T08:06:21;3.58;;;1.25;;
47856;SDS011;33618;49.972;8.242;2023-02-03T08:08:48;2.78;;;1.25;;
47856;SDS011;33618;49.972;8.242;2023-02-03T08:11:15;1.17;;;1.08;;
47856;SDS011;33618;49.972;8.242;2023-02-03T08:13:42;1.80;;;1.20;;
47856;SDS011;33618;49.972;8.242;2023-02-03T08:16:09;3.80;;;1.10;;
47856;SDS011;33618;49.972;8.242;2023-02-03T08:18:36;1.90;;;1.10;;
47856;SDS011;33618;49.972;8.242;2023-02-03T08:21:03;1.20;;;1.10;;
47856;SDS011;33618;49.972;8.242;2023-02-03T08:23:30;4.93;;;1.20;;
47856;SDS011;33618;49.972;8.242;2023-02-03T08:25:57;2.28;;;1.00;;
47856;SDS011;33618;49.972;8.242;2023-02-03T08:28:24;3.85;;;1.10;;
47856;SDS011;33618;49.972;8.242;2023-02-03T08:30:51;1.90;;;1.27;;
47856;SDS011;33618;49.972;8.242;2023-02-03T08:33:18;1.65;;;1.20;;
47856;SDS011;33618;49.972;8.242;2023-02-03T08:35:46;2.17;;;1.10;;
47856;SDS011;33618;49.972;8.242;2023-02-03T08:38:14;3.47;;;1.02;;
47856;SDS011;33618;49.972;8.242;2023-02-03T08:40:42;2.08;;;1.30;;
47856;SDS011;33618;49.972;8.242;2023-02-03T08:43:09;2.25;;;0.90;;
47856;SDS011;33618;49.972;8.242;2023-02-03T08:45:37;3.63;;;1.00;;
47856;SDS011;33618;49.972;8.242;2023-02-03T08:48:05;1.60;;;1.10;;
47856;SDS011;33618;49.972;8.242;2023-02-03T08:50:32;2.05;;;1.05;;
47856;SDS011;33618;49.972;8.242;2023-02-03T08:52:59;5.35;;;1.23;;
47856;SDS011;33618;49.972;8.242;2023-02-03T08:55:26;1.10;;;1.00;;
47856;SDS011;33618;49.972;8.242;2023-02-03T08:57:53;1.90;;;0.90;;
47856;SDS011;33618;49.972;8.242;2023-02-03T09:00:21;1.00;;;0.90;;
47856;SDS011;33618;49.972;8.242;2023-02-03T09:02:48;3.42;;;1.00;;
47856;SDS011;33618;49.972;8.242;2023-02-03T09:05:15;1.83;;;1.00;;
47856;SDS011;33618;49.972;8.242;2023-02-03T09:07:43;2.45;;;1.30;;
47856;SDS011;33618;49.972;8.242;2023-02-03T09:10:10;1.23;;;1.05;;
47856;SDS011;33618;49.972;8.242;2023-02-03T09:12:37;2.80;;;1.30;;
47856;SDS011;33618;49.972;8.242;2023-02-03T09:15:05;3.55;;;1.00;;
47856;SDS011;33618;49.972;8.242;2023-02-03T09:17:32;1.75;;;1.65;;
47856;SDS011;33618;49.972;8.242;2023-02-03T09:19:59;5.28;;;1.10;;
47856;SDS011;33618;49.972;8.242;2023-02-03T09:22:26;2.05;;;0.80;;
47856;SDS011;33618;49.972;8.242;2023-02-03T09:24:53;0.85;;;0.80;;
47856;SDS011;33618;49.972;8.242;2023-02-03T09:27:20;1.80;;;0.80;;
47856;SDS011;33618;49.972;8.242;2023-02-03T09:29:47;3.00;;;1.10;;
47856;SDS011;33618;49.972;8.242;2023-02-03T09:32:14;1.75;;;0.80;;
47856;SDS011;33618;49.972;8.242;2023-02-03T09:34:41;1.35;;;1.00;;
47856;SDS011;33618;49.972;8.242;2023-02-03T09:37:08;2.33;;;0.82;;
47856;SDS011;33618;49.972;8.242;2023-02-03T09:39:35;2.55;;;0.90;;
47856;SDS011;33618;49.972;8.242;2023-02-03T09:42:05;1.90;;;0.90;;
47856;SDS011;33618;49.972;8.242;2023-02-03T09:47:21;2.08;;;1.08;;
47856;SDS011;33618;49.972;8.242;2023-02-03T09:49:59;1.55;;;0.93;;
47856;SDS011;33618;49.972;8.242;2023-02-03T09:52:36;1.15;;;1.00;;
47856;SDS011;33618;49.972;8.242;2023-02-03T09:55:20;2.22;;;0.75;;
47856;SDS011;33618;49.972;8.242;2023-02-03T09:58:08;1.98;;;0.82;;
47856;SDS011;33618;49.972;8.242;2023-02-03T10:00:41;1.02;;;0.93;;
47856;SDS011;33618;49.972;8.242;2023-02-03T10:08:24;0.73;;;0.73;;
47856;SDS011;33618;49.972;8.242;2023-02-03T10:16:54;4.55;;;1.13;;
47856;SDS011;33618;49.972;8.242;2023-02-03T10:19:32;1.92;;;0.75;;
47856;SDS011;33618;49.972;8.242;2023-02-03T10:22:01;1.00;;;0.90;;
47856;SDS011;33618;49.972;8.242;2023-02-03T10:24:39;1.52;;;0.80;;
47856;SDS011;33618;49.972;8.242;2023-02-03T10:27:19;2.28;;;0.70;;
47856;SDS011;33618;49.972;8.242;2023-02-03T10:29:54;1.85;;;0.70;;
47856;SDS011;33618;49.972;8.242;2023-02-03T10:32:25;1.80;;;0.70;;
47856;SDS011;33618;49.972;8.242;2023-02-03T10:34:53;1.65;;;0.75;;
47856;SDS011;33618;49.972;8.242;2023-02-03T10:37:28;1.60;;;0.80;;
47856;SDS011;33618;49.972;8.242;2023-02-03T10:39:59;1.88;;;0.90;;
47856;SDS011;33618;49.972;8.242;2023-02-03T10:42:28;1.67;;;1.20;;
47856;SDS011;33618;49.972;8.242;2023-02-03T10:45:15;2.53;;;1.10;;
47856;SDS011;33618;49.972;8.242;2023-02-03T10:47:43;3.75;;;0.95;;
47856;SDS011;33618;49.972;8.242;2023-02-03T10:50:15;0.68;;;0.60;;
47856;SDS011;33618;49.972;8.242;2023-02-03T10:52:48;0.90;;;0.60;;
47856;SDS011;33618;49.972;8.242;2023-02-03T10:57:51;1.88;;;0.90;;
47856;SDS011;33618;49.972;8.242;2023-02-03T11:00:29;1.75;;;0.75;;
47856;SDS011;33618;49.972;8.242;2023-02-03T11:02:59;0.75;;;0.60;;
47856;SDS011;33618;49.972;8.242;2023-02-03T11:05:31;1.00;;;0.68;;
47856;SDS011;33618;49.972;8.242;2023-02-03T11:07:58;1.45;;;0.80;;
47856;SDS011;33618;49.972;8.242;2023-02-03T11:10:31;1.55;;;0.60;;
47856;SDS011;33618;49.972;8.242;2023-02-03T11:13:20;0.60;;;0.60;;
47856;SDS011;33618;49.972;8.242;2023-02-03T11:18:26;1.15;;;0.65;;
47856;SDS011;33618;49.972;8.242;2023-02-03T11:26:53;3.45;;;0.70;;
47856;SDS011;33618;49.972;8.242;2023-02-03T11:29:24;1.55;;;0.77;;
47856;SDS011;33618;49.972;8.242;2023-02-03T11:31:54;1.17;;;1.00;;
47856;SDS011;33618;49.972;8.242;2023-02-03T11:34:30;1.83;;;0.80;;
47856;SDS011;33618;49.972;8.242;2023-02-03T11:39:54;1.65;;;0.90;;
47856;SDS011;33618;49.972;8.242;2023-02-03T11:42:44;0.77;;;0.77;;
47856;SDS011;33618;49.972;8.242;2023-02-03T11:50:44;1.25;;;0.80;;
47856;SDS011;33618;49.972;8.242;2023-02-03T11:53:26;3.42;;;0.90;;
47856;SDS011;33618;49.972;8.242;2023-02-03T12:04:55;3.50;;;1.58;;
47856;SDS011;33618;49.972;8.242;2023-02-03T12:07:43;0.70;;;0.60;;
47856;SDS011;33618;49.972;8.242;2023-02-03T12:16:04;1.15;;;0.65;;
47856;SDS011;33618;49.972;8.242;2023-02-03T12:18:45;1.25;;;0.73;;
47856;SDS011;33618;49.972;8.242;2023-02-03T12:21:40;2.35;;;0.70;;
47856;SDS011;33618;49.972;8.242;2023-02-03T12:26:54;1.52;;;0.65;;
47856;SDS011;33618;49.972;8.242;2023-02-03T12:29:33;2.15;;;0.80;;
47856;SDS011;33618;49.972;8.242;2023-02-03T12:32:31;0.50;;;0.50;;
47856;SDS011;33618;49.972;8.242;2023-02-03T12:35:17;1.38;;;0.85;;
47856;SDS011;33618;49.972;8.242;2023-02-03T12:40:41;1.30;;;0.75;;
47856;SDS011;33618;49.972;8.242;2023-02-03T12:43:34;1.75;;;0.50;;
47856;SDS011;33618;49.972;8.242;2023-02-03T12:46:22;1.70;;;0.70;;
47856;SDS011;33618;49.972;8.242;2023-02-03T12:51:46;0.55;;;0.55;;
47856;SDS011;33618;49.972;8.242;2023-02-03T12:54:30;1.08;;;0.80;;
47856;SDS011;33618;49.972;8.242;2023-02-03T12:57:07;2.40;;;0.60;;
47856;SDS011;33618;49.972;8.242;2023-02-03T13:00:10;1.20;;;0.77;;
47856;SDS011;33618;49.972;8.242;2023-02-03T13:06:00;2.58;;;0.70;;
47856;SDS011;33618;49.972;8.242;2023-02-03T13:08:42;2.08;;;0.60;;
47856;SDS011;33618;49.972;8.242;2023-02-03T13:14:18;1.88;;;0.70;;
47856;SDS011;33618;49.972;8.242;2023-02-03T13:17:14;0.50;;;0.50;;
47856;SDS011;33618;49.972;8.242;2023-02-03T13:19:49;0.68;;;0.60;;
47856;SDS011;33618;49.972;8.242;2023-02-03T13:22:21;0.88;;;0.60;;
47856;SDS011;33618;49.972;8.242;2023-02-03T13:25:06;1.88;;;0.70;;
47856;SDS011;33618;49.972;8.242;2023-02-03T13:27:56;2.17;;;0.75;;
47856;SDS011;33618;49.972;8.242;2023-02-03T13:42:07;0.52;;;0.50;;
47856;SDS011;33618;49.972;8.242;2023-02-03T13:44:51;0.73;;;0.60;;
47856;SDS011;33618;49.972;8.242;2023-02-03T13:47:23;0.50;;;0.50;;
47856;SDS011;33618;49.972;8.242;2023-02-03T13:49:55;1.98;;;0.52;;
47856;SDS011;33618;49.972;8.242;2023-02-03T13:52:28;0.60;;;0.50;;
47856;SDS011;33618;49.972;8.242;2023-02-03T13:54:59;0.90;;;0.60;;
47856;SDS011;33618;49.972;8.242;2023-02-03T13:57:31;0.60;;;0.60;;
47856;SDS011;33618;49.972;8.242;2023-02-03T14:00:57;2.45;;;0.55;;
47856;SDS011;33618;49.972;8.242;2023-02-03T14:03:14;0.40;;;0.40;;
47856;SDS011;33618;49.972;8.242;2023-02-03T14:05:44;1.15;;;0.52;;
47856;SDS011;33618;49.972;8.242;2023-02-03T14:16:37;0.40;;;0.40;;
47856;SDS011;33618;49.972;8.242;2023-02-03T14:19:09;0.32;;;0.30;;
47856;SDS011;33618;49.972;8.242;2023-02-03T14:21:41;0.63;;;0.50;;
47856;SDS011;33618;49.972;8.242;2023-02-03T14:24:17;0.85;;;0.50;;
47856;SDS011;33618;49.972;8.242;2023-02-03T14:26:46;0.50;;;0.40;;
47856;SDS011;33618;49.972;8.242;2023-02-03T14:29:29;0.40;;;0.40;;
47856;SDS011;33618;49.972;8.242;2023-02-03T14:32:02;0.93;;;0.50;;
47856;SDS011;33618;49.972;8.242;2023-02-03T14:34:37;1.25;;;0.60;;
47856;SDS011;33618;49.972;8.242;2023-02-03T14:50:33;0.40;;;0.40;;
47856;SDS011;33618;49.972;8.242;2023-02-03T14:53:20;0.38;;;0.38;;
47856;SDS011;33618;49.972;8.242;2023-02-03T14:56:30;0.50;;;0.50;;
47856;SDS011;33618;49.972;8.242;2023-02-03T14:58:51;1.00;;;0.60;;
47856;SDS011;33618;49.972;8.242;2023-02-03T15:06:44;0.50;;;0.50;;
47856;SDS011;33618;49.972;8.242;2023-02-03T15:09:21;0.75;;;0.70;;
47856;SDS011;33618;49.972;8.242;2023-02-03T15:11:50;1.45;;;0.70;;
47856;SDS011;33618;49.972;8.242;2023-02-03T15:17:34;0.50;;;0.50;;
47856;SDS011;33618;49.972;8.242;2023-02-03T15:19:53;0.68;;;0.68;;
47856;SDS011;33618;49.972;8.242;2023-02-03T15:22:21;0.52;;;0.52;;
47856;SDS011;33618;49.972;8.242;2023-02-03T15:24:57;0.40;;;0.40;;
47856;SDS011;33618;49.972;8.242;2023-02-03T15:27:30;0.60;;;0.60;;
47856;SDS011;33618;49.972;8.242;2023-02-03T15:30:05;1.15;;;0.50;;
47856;SDS011;33618;49.972;8.242;2023-02-03T15:33:00;0.90;;;0.50;;
47856;SDS011;33618;49.972;8.242;2023-02-03T15:35:34;0.40;;;0.40;;
47856;SDS011;33618;49.972;8.242;2023-02-03T15:38:10;0.50;;;0.50;;
47856;SDS011;33618;49.972;8.242;2023-02-03T15:43:15;1.05;;;0.68;;
47856;SDS011;33618;49.972;8.242;2023-02-03T15:45:52;0.60;;;0.60;;
47856;SDS011;33618;49.972;8.242;2023-02-03T15:48:33;0.50;;;0.50;;
47856;SDS011;33618;49.972;8.242;2023-02-03T15:51:17;0.50;;;0.50;;
47856;SDS011;33618;49.972;8.242;2023-02-03T15:56:37;6.28;;;3.05;;
47856;SDS011;33618;49.972;8.242;2023-02-03T15:59:19;0.63;;;0.63;;
47856;SDS011;33618;49.972;8.242;2023-02-03T16:01:52;0.77;;;0.68;;
47856;SDS011;33618;49.972;8.242;2023-02-03T16:04:20;0.50;;;0.50;;
47856;SDS011;33618;49.972;8.242;2023-02-03T16:06:48;0.57;;;0.50;;
47856;SDS011;33618;49.972;8.242;2023-02-03T16:09:28;0.90;;;0.90;;
47856;SDS011;33618;49.972;8.242;2023-02-03T16:12:25;0.70;;;0.70;;
47856;SDS011;33618;49.972;8.242;2023-02-03T16:14:57;0.85;;;0.47;;
47856;SDS011;33618;49.972;8.242;2023-02-03T16:17:26;0.40;;;0.40;;
47856;SDS011;33618;49.972;8.242;2023-02-03T16:22:45;0.50;;;0.50;;
47856;SDS011;33618;49.972;8.242;2023-02-03T16:25:29;0.70;;;0.70;;
47856;SDS011;33618;49.972;8.242;2023-02-03T16:28:03;0.70;;;0.70;;
47856;SDS011;33618;49.972;8.242;2023-02-03T16:31:01;0.98;;;0.70;;
47856;SDS011;33618;49.972;8.242;2023-02-03T16:33:54;0.68;;;0.63;;
47856;SDS011;33618;49.972;8.242;2023-02-03T16:36:41;1.60;;;0.80;;
47856;SDS011;33618;49.972;8.242;2023-02-03T16:39:27;0.68;;;0.68;;
47856;SDS011;33618;49.972;8.242;2023-02-03T16:42:16;0.70;;;0.70;;
47856;SDS011;33618;49.972;8.242;2023-02-03T16:45:37;0.50;;;0.50;;
47856;SDS011;33618;49.972;8.242;2023-02-03T16:48:16;0.60;;;0.60;;
47856;SDS011;33618;49.972;8.242;2023-02-03T16:51:02;0.70;;;0.70;;
47856;SDS011;33618;49.972;8.242;2023-02-03T16:53:36;0.70;;;0.70;;
47856;SDS011;33618;49.972;8.242;2023-02-03T16:56:04;0.80;;;0.80;;
47856;SDS011;33618;49.972;8.242;2023-02-03T16:58:31;0.68;;;0.68;;
47856;SDS011;33618;49.972;8.242;2023-02-03T17:00:59;0.60;;;0.60;;
47856;SDS011;33618;49.972;8.242;2023-02-03T17:03:29;0.88;;;0.73;;
47856;SDS011;33618;49.972;8.242;2023-02-03T17:06:01;0.77;;;0.77;;
47856;SDS011;33618;49.972;8.242;2023-02-03T17:08:36;0.80;;;0.80;;
47856;SDS011;33618;49.972;8.242;2023-02-03T17:11:04;0.80;;;0.80;;
47856;SDS011;33618;49.972;8.242;2023-02-03T17:13:33;0.90;;;0.90;;
47856;SDS011;33618;49.972;8.242;2023-02-03T17:16:07;1.33;;;1.23;;
47856;SDS011;33618;49.972;8.242;2023-02-03T17:18:36;1.83;;;1.58;;
47856;SDS011;33618;49.972;8.242;2023-02-03T17:21:05;1.67;;;1.52;;
47856;SDS011;33618;49.972;8.242;2023-02-03T17:23:33;1.55;;;1.20;;
47856;SDS011;33618;49.972;8.242;2023-02-03T17:26:01;1.30;;;1.20;;
47856;SDS011;33618;49.972;8.242;2023-02-03T17:28:28;1.10;;;1.10;;
47856;SDS011;33618;49.972;8.242;2023-02-03T17:30:57;1.10;;;1.00;;
47856;SDS011;33618;49.972;8.242;2023-02-03T17:33:28;4.38;;;1.13;;
47856;SDS011;33618;49.972;8.242;2023-02-03T17:38:30;3.88;;;1.13;;
47856;SDS011;33618;49.972;8.242;2023-02-03T17:41:11;1.40;;;1.30;;
47856;SDS011;33618;49.972;8.242;2023-02-03T17:44:00;1.50;;;1.40;;
47856;SDS011;33618;49.972;8.242;2023-02-03T17:46:44;1.25;;;1.20;;
47856;SDS011;33618;49.972;8.242;2023-02-03T17:49:28;1.98;;;1.45;;
47856;SDS011;33618;49.972;8.242;2023-02-03T17:52:13;1.38;;;1.27;;
47856;SDS011;33618;49.972;8.242;2023-02-03T17:54:58;1.40;;;1.30;;
47856;SDS011;33618;49.972;8.242;2023-02-03T17:57:25;2.30;;;1.50;;
47856;SDS011;33618;49.972;8.242;2023-02-03T17:59:52;3.00;;;1.50;;
47856;SDS011;33618;49.972;8.242;2023-02-03T18:02:20;2.47;;;1.73;;
47856;SDS011;33618;49.972;8.242;2023-02-03T18:04:47;1.75;;;1.60;;
47856;SDS011;33618;49.972;8.242;2023-02-03T18:07:14;1.70;;;1.60;;
47856;SDS011;33618;49.972;8.242;2023-02-03T18:09:41;2.47;;;1.63;;
47856;SDS011;33618;49.972;8.242;2023-02-03T18:12:08;2.78;;;2.05;;
47856;SDS011;33618;49.972;8.242;2023-02-03T18:14:34;1.75;;;1.65;;
47856;SDS011;33618;49.972;8.242;2023-02-03T18:17:01;2.20;;;2.00;;
47856;SDS011;33618;49.972;8.242;2023-02-03T18:19:31;1.75;;;1.65;;
47856;SDS011;33618;49.972;8.242;2023-02-03T18:21:58;2.35;;;1.88;;
47856;SDS011;33618;49.972;8.242;2023-02-03T18:24:25;3.22;;;1.92;;
47856;SDS011;33618;49.972;8.242;2023-02-03T18:26:54;3.05;;;2.00;;
47856;SDS011;33618;49.972;8.242;2023-02-03T18:29:22;4.10;;;2.17;;